sensor_id;sensor_type;location;lat;lon;timestamp;pressure;altitude;pressure_sealevel;temperature;humidity
22333;BME280;11334;36.986;-121.936;2023-05-01T00:01:11;100861.88;;;28.91;24.62
22333;BME280;11334;36.986;-121.936;2023-05-01T00:03:37;100863.78;;;28.85;23.56
22333;BME280;11334;36.986;-121.936;2023-05-01T00:06:03;100849.19;;;28.26;23.56
22333;BME280;11334;36.986;-121.936;2023-05-01T00:08:30;100853.06;;;28.44;23.76
22333;BME280;11334;36.986;-121.936;2023-05-01T00:11:02;100861.31;;;28.69;23.06
22333;BME280;11334;36.986;-121.936;2023-05-01T00:13:29;100852.47;;;28.32;24.04
22333;BME280;11334;36.986;-121.936;2023-05-01T00:15:55;100844.47;;;28.11;23.59
22333;BME280;11334;36.986;-121.936;2023-05-01T00:18:22;100853.28;;;27.67;24.20
22333;BME280;11334;36.986;-121.936;2023-05-01T00:20:48;100849.53;;;27.83;24.95
22333;BME280;11334;36.986;-121.936;2023-05-01T00:23:14;100853.38;;;28.62;25.25
22333;BME280;11334;36.986;-121.936;2023-05-01T00:25:41;100849.34;;;29.09;24.12
22333;BME280;11334;36.986;-121.936;2023-05-01T00:28:07;100853.09;;;29.48;23.09
22333;BME280;11334;36.986;-121.936;2023-05-01T00:30:34;100846.41;;;30.03;23.18
22333;BME280;11334;36.986;-121.936;2023-05-01T00:33:00;100844.38;;;30.71;22.02
22333;BME280;11334;36.986;-121.936;2023-05-01T00:35:27;100845.03;;;30.96;22.59
22333;BME280;11334;36.986;-121.936;2023-05-01T00:37:54;100849.31;;;30.69;22.50
22333;BME280;11334;36.986;-121.936;2023-05-01T00:40:20;100850.75;;;30.09;22.09
22333;BME280;11334;36.986;-121.936;2023-05-01T00:42:47;100840.94;;;30.08;23.49
22333;BME280;11334;36.986;-121.936;2023-05-01T00:45:14;100852.69;;;30.03;23.27
22333;BME280;11334;36.986;-121.936;2023-05-01T00:47:40;100863.53;;;29.06;23.46
22333;BME280;11334;36.986;-121.936;2023-05-01T00:50:07;100848.78;;;29.32;23.20
22333;BME280;11334;36.986;-121.936;2023-05-01T00:52:34;100855.28;;;29.70;23.02
22333;BME280;11334;36.986;-121.936;2023-05-01T00:55:00;100840.31;;;29.28;23.49
22333;BME280;11334;36.986;-121.936;2023-05-01T00:57:27;100867.34;;;29.20;22.91
22333;BME280;11334;36.986;-121.936;2023-05-01T00:59:54;100858.19;;;28.31;23.57
22333;BME280;11334;36.986;-121.936;2023-05-01T01:02:20;100837.13;;;28.17;23.37
22333;BME280;11334;36.986;-121.936;2023-05-01T01:04:47;100841.94;;;28.90;23.21
22333;BME280;11334;36.986;-121.936;2023-05-01T01:07:34;100837.59;;;28.84;23.33
22333;BME280;11334;36.986;-121.936;2023-05-01T01:12:53;100847.78;;;28.18;22.94
22333;BME280;11334;36.986;-121.936;2023-05-01T01:20:48;100841.75;;;25.68;24.59
22333;BME280;11334;36.986;-121.936;2023-05-01T01:24:02;100842.56;;;25.69;24.81
22333;BME280;11334;36.986;-121.936;2023-05-01T01:29:39;100846.16;;;26.37;25.11
22333;BME280;11334;36.986;-121.936;2023-05-01T01:34:53;100849.94;;;23.43;29.49
22333;BME280;11334;36.986;-121.936;2023-05-01T01:38:03;100866.88;;;22.35;31.30
22333;BME280;11334;36.986;-121.936;2023-05-01T01:40:36;100819.41;;;21.81;32.51
22333;BME280;11334;36.986;-121.936;2023-05-01T01:43:07;100839.47;;;22.02;33.17
22333;BME280;11334;36.986;-121.936;2023-05-01T01:45:46;100845.69;;;22.03;32.76
22333;BME280;11334;36.986;-121.936;2023-05-01T01:48:16;100845.66;;;21.56;33.73
22333;BME280;11334;36.986;-121.936;2023-05-01T01:50:45;100836.75;;;21.38;34.11
22333;BME280;11334;36.986;-121.936;2023-05-01T01:53:17;100853.38;;;21.35;34.17
22333;BME280;11334;36.986;-121.936;2023-05-01T01:55:44;100843.91;;;21.02;35.16
22333;BME280;11334;36.986;-121.936;2023-05-01T01:58:14;100844.97;;;20.70;36.46
22333;BME280;11334;36.986;-121.936;2023-05-01T02:00:44;100847.84;;;20.75;36.46
22333;BME280;11334;36.986;-121.936;2023-05-01T02:03:12;100855.53;;;20.41;36.59
22333;BME280;11334;36.986;-121.936;2023-05-01T02:05:41;100857.41;;;20.04;37.82
22333;BME280;11334;36.986;-121.936;2023-05-01T02:08:09;100844.69;;;19.80;38.08
22333;BME280;11334;36.986;-121.936;2023-05-01T02:10:37;100852.59;;;19.56;38.69
22333;BME280;11334;36.986;-121.936;2023-05-01T02:13:04;100835.94;;;19.16;38.60
22333;BME280;11334;36.986;-121.936;2023-05-01T02:15:31;100855.19;;;18.94;39.77
22333;BME280;11334;36.986;-121.936;2023-05-01T02:18:04;100862.78;;;18.77;40.30
22333;BME280;11334;36.986;-121.936;2023-05-01T02:20:31;100857.00;;;18.55;40.09
22333;BME280;11334;36.986;-121.936;2023-05-01T02:22:58;100853.69;;;18.59;40.12
22333;BME280;11334;36.986;-121.936;2023-05-01T02:25:26;100860.47;;;18.42;40.53
22333;BME280;11334;36.986;-121.936;2023-05-01T02:27:59;100856.94;;;18.16;41.43
22333;BME280;11334;36.986;-121.936;2023-05-01T02:30:27;100853.19;;;18.17;41.39
22333;BME280;11334;36.986;-121.936;2023-05-01T02:32:53;100846.56;;;18.07;42.41
22333;BME280;11334;36.986;-121.936;2023-05-01T02:35:19;100849.78;;;17.90;42.40
22333;BME280;11334;36.986;-121.936;2023-05-01T02:37:46;100851.84;;;17.48;43.41
22333;BME280;11334;36.986;-121.936;2023-05-01T02:40:12;100858.84;;;17.49;44.33
22333;BME280;11334;36.986;-121.936;2023-05-01T02:42:44;100857.13;;;17.35;44.20
22333;BME280;11334;36.986;-121.936;2023-05-01T02:45:21;100867.53;;;17.17;44.77
22333;BME280;11334;36.986;-121.936;2023-05-01T02:47:53;100865.25;;;16.94;45.68
22333;BME280;11334;36.986;-121.936;2023-05-01T02:50:22;100862.41;;;16.75;46.13
22333;BME280;11334;36.986;-121.936;2023-05-01T02:52:49;100866.63;;;16.63;46.79
22333;BME280;11334;36.986;-121.936;2023-05-01T02:55:16;100856.88;;;16.35;47.72
22333;BME280;11334;36.986;-121.936;2023-05-01T02:57:43;100857.00;;;15.92;49.32
22333;BME280;11334;36.986;-121.936;2023-05-01T03:00:09;100857.72;;;15.86;49.45
22333;BME280;11334;36.986;-121.936;2023-05-01T03:02:41;100866.88;;;15.77;50.38
22333;BME280;11334;36.986;-121.936;2023-05-01T03:05:07;100865.16;;;15.55;51.43
22333;BME280;11334;36.986;-121.936;2023-05-01T03:07:34;100857.97;;;15.42;51.97
22333;BME280;11334;36.986;-121.936;2023-05-01T03:10:04;100867.94;;;15.62;51.86
22333;BME280;11334;36.986;-121.936;2023-05-01T03:12:32;100862.31;;;15.43;52.68
22333;BME280;11334;36.986;-121.936;2023-05-01T03:14:59;100854.13;;;15.16;53.84
22333;BME280;11334;36.986;-121.936;2023-05-01T03:17:25;100876.75;;;15.19;54.52
22333;BME280;11334;36.986;-121.936;2023-05-01T03:19:52;100867.19;;;15.25;54.44
22333;BME280;11334;36.986;-121.936;2023-05-01T03:22:18;100870.84;;;15.24;54.21
22333;BME280;11334;36.986;-121.936;2023-05-01T03:24:44;100876.47;;;15.29;54.41
22333;BME280;11334;36.986;-121.936;2023-05-01T03:27:12;100880.34;;;15.26;54.58
22333;BME280;11334;36.986;-121.936;2023-05-01T03:29:38;100878.78;;;15.32;54.55
22333;BME280;11334;36.986;-121.936;2023-05-01T03:32:05;100884.41;;;15.22;55.30
22333;BME280;11334;36.986;-121.936;2023-05-01T03:34:31;100883.91;;;15.19;55.75
22333;BME280;11334;36.986;-121.936;2023-05-01T03:36:58;100875.47;;;15.16;55.63
22333;BME280;11334;36.986;-121.936;2023-05-01T03:39:25;100882.41;;;15.02;55.94
22333;BME280;11334;36.986;-121.936;2023-05-01T03:41:51;100892.56;;;14.70;57.23
22333;BME280;11334;36.986;-121.936;2023-05-01T03:44:17;100890.75;;;14.85;57.09
22333;BME280;11334;36.986;-121.936;2023-05-01T03:46:43;100888.78;;;14.79;57.53
22333;BME280;11334;36.986;-121.936;2023-05-01T03:49:10;100890.56;;;14.86;57.70
22333;BME280;11334;36.986;-121.936;2023-05-01T03:51:37;100905.19;;;14.90;57.72
22333;BME280;11334;36.986;-121.936;2023-05-01T03:54:03;100912.47;;;14.96;57.55
22333;BME280;11334;36.986;-121.936;2023-05-01T03:56:29;100921.09;;;14.84;57.59
22333;BME280;11334;36.986;-121.936;2023-05-01T03:59:00;100915.22;;;14.88;57.33
22333;BME280;11334;36.986;-121.936;2023-05-01T04:01:26;100914.16;;;14.97;57.35
22333;BME280;11334;36.986;-121.936;2023-05-01T04:03:52;100912.59;;;15.03;57.42
22333;BME280;11334;36.986;-121.936;2023-05-01T04:06:19;100920.22;;;15.06;57.09
22333;BME280;11334;36.986;-121.936;2023-05-01T04:08:45;100934.13;;;15.01;57.12
22333;BME280;11334;36.986;-121.936;2023-05-01T04:11:11;100927.66;;;14.96;56.79
22333;BME280;11334;36.986;-121.936;2023-05-01T04:13:37;100929.72;;;15.08;57.08
22333;BME280;11334;36.986;-121.936;2023-05-01T04:16:04;100946.47;;;15.02;57.44
22333;BME280;11334;36.986;-121.936;2023-05-01T04:18:30;100952.78;;;15.01;57.64
22333;BME280;11334;36.986;-121.936;2023-05-01T04:20:57;100942.59;;;15.05;57.53
22333;BME280;11334;36.986;-121.936;2023-05-01T04:23:23;100943.44;;;15.05;57.45
22333;BME280;11334;36.986;-121.936;2023-05-01T04:25:49;100954.06;;;14.91;57.68
22333;BME280;11334;36.986;-121.936;2023-05-01T04:28:15;100960.41;;;14.90;57.24
22333;BME280;11334;36.986;-121.936;2023-05-01T04:30:42;100958.03;;;14.95;57.64
22333;BME280;11334;36.986;-121.936;2023-05-01T04:33:08;100960.88;;;14.93;57.93
22333;BME280;11334;36.986;-121.936;2023-05-01T04:35:37;100963.47;;;15.01;57.60
22333;BME280;11334;36.986;-121.936;2023-05-01T04:38:08;100956.47;;;15.00;57.82
22333;BME280;11334;36.986;-121.936;2023-05-01T04:40:37;100965.97;;;15.03;57.92
22333;BME280;11334;36.986;-121.936;2023-05-01T04:43:03;100956.00;;;14.97;57.99
22333;BME280;11334;36.986;-121.936;2023-05-01T04:45:29;100952.63;;;15.03;57.94
22333;BME280;11334;36.986;-121.936;2023-05-01T04:47:56;100965.16;;;15.02;58.22
22333;BME280;11334;36.986;-121.936;2023-05-01T04:50:23;100962.81;;;14.99;57.86
22333;BME280;11334;36.986;-121.936;2023-05-01T04:52:49;100967.97;;;15.01;58.51
22333;BME280;11334;36.986;-121.936;2023-05-01T04:55:15;100962.28;;;15.04;58.45
22333;BME280;11334;36.986;-121.936;2023-05-01T04:57:42;100968.59;;;15.11;58.03
22333;BME280;11334;36.986;-121.936;2023-05-01T05:00:08;100963.31;;;15.03;58.53
22333;BME280;11334;36.986;-121.936;2023-05-01T05:02:35;100964.94;;;15.04;58.68
22333;BME280;11334;36.986;-121.936;2023-05-01T05:05:01;100967.91;;;15.09;58.58
22333;BME280;11334;36.986;-121.936;2023-05-01T05:07:27;100962.56;;;15.09;58.45
22333;BME280;11334;36.986;-121.936;2023-05-01T05:09:54;100968.44;;;15.04;59.26
22333;BME280;11334;36.986;-121.936;2023-05-01T05:12:20;100971.09;;;15.04;59.19
22333;BME280;11334;36.986;-121.936;2023-05-01T05:14:46;100961.75;;;15.08;58.25
22333;BME280;11334;36.986;-121.936;2023-05-01T05:17:13;100966.25;;;15.08;58.98
22333;BME280;11334;36.986;-121.936;2023-05-01T05:19:39;100962.47;;;15.02;59.53
22333;BME280;11334;36.986;-121.936;2023-05-01T05:22:05;100964.78;;;15.05;59.11
22333;BME280;11334;36.986;-121.936;2023-05-01T05:24:32;100961.41;;;15.11;58.93
22333;BME280;11334;36.986;-121.936;2023-05-01T05:26:58;100963.25;;;15.11;59.29
22333;BME280;11334;36.986;-121.936;2023-05-01T05:29:24;100957.44;;;15.07;59.45
22333;BME280;11334;36.986;-121.936;2023-05-01T05:31:50;100961.09;;;15.06;59.34
22333;BME280;11334;36.986;-121.936;2023-05-01T05:34:17;100950.94;;;15.10;59.31
22333;BME280;11334;36.986;-121.936;2023-05-01T05:36:44;100945.28;;;15.05;59.82
22333;BME280;11334;36.986;-121.936;2023-05-01T05:39:10;100961.75;;;15.08;60.09
22333;BME280;11334;36.986;-121.936;2023-05-01T05:41:37;100958.38;;;15.14;59.73
22333;BME280;11334;36.986;-121.936;2023-05-01T05:44:03;100962.72;;;15.15;59.33
22333;BME280;11334;36.986;-121.936;2023-05-01T05:46:30;100959.19;;;15.15;59.57
22333;BME280;11334;36.986;-121.936;2023-05-01T05:48:56;100957.38;;;15.15;59.19
22333;BME280;11334;36.986;-121.936;2023-05-01T05:51:22;100957.47;;;15.21;59.52
22333;BME280;11334;36.986;-121.936;2023-05-01T05:53:48;100961.63;;;15.24;58.78
22333;BME280;11334;36.986;-121.936;2023-05-01T05:56:15;100959.03;;;15.16;59.27
22333;BME280;11334;36.986;-121.936;2023-05-01T05:58:41;100957.84;;;15.18;59.54
22333;BME280;11334;36.986;-121.936;2023-05-01T06:01:07;100954.53;;;15.17;59.03
22333;BME280;11334;36.986;-121.936;2023-05-01T06:03:34;100956.81;;;15.19;59.08
22333;BME280;11334;36.986;-121.936;2023-05-01T06:06:01;100952.75;;;15.09;59.55
22333;BME280;11334;36.986;-121.936;2023-05-01T06:08:28;100956.91;;;15.12;59.88
22333;BME280;11334;36.986;-121.936;2023-05-01T06:10:54;100946.72;;;15.15;59.93
22333;BME280;11334;36.986;-121.936;2023-05-01T06:13:21;100953.41;;;15.11;59.55
22333;BME280;11334;36.986;-121.936;2023-05-01T06:15:47;100950.38;;;15.14;59.68
22333;BME280;11334;36.986;-121.936;2023-05-01T06:18:13;100944.22;;;15.14;59.79
22333;BME280;11334;36.986;-121.936;2023-05-01T06:20:43;100944.25;;;15.06;60.29
22333;BME280;11334;36.986;-121.936;2023-05-01T06:23:09;100936.72;;;15.09;60.10
22333;BME280;11334;36.986;-121.936;2023-05-01T06:25:38;100933.41;;;15.07;60.65
22333;BME280;11334;36.986;-121.936;2023-05-01T06:28:04;100936.56;;;14.88;60.71
22333;BME280;11334;36.986;-121.936;2023-05-01T06:30:31;100929.38;;;14.89;61.62
22333;BME280;11334;36.986;-121.936;2023-05-01T06:32:57;100928.56;;;14.88;61.94
22333;BME280;11334;36.986;-121.936;2023-05-01T06:35:23;100931.69;;;14.92;61.97
22333;BME280;11334;36.986;-121.936;2023-05-01T06:37:50;100932.47;;;15.00;61.06
22333;BME280;11334;36.986;-121.936;2023-05-01T06:40:16;100925.16;;;14.94;61.25
22333;BME280;11334;36.986;-121.936;2023-05-01T06:42:42;100925.81;;;14.96;61.74
22333;BME280;11334;36.986;-121.936;2023-05-01T06:45:08;100928.69;;;14.95;61.78
22333;BME280;11334;36.986;-121.936;2023-05-01T06:47:35;100931.81;;;14.98;61.81
22333;BME280;11334;36.986;-121.936;2023-05-01T06:50:01;100914.16;;;14.97;61.94
22333;BME280;11334;36.986;-121.936;2023-05-01T06:52:29;100931.28;;;15.03;62.04
22333;BME280;11334;36.986;-121.936;2023-05-01T06:54:55;100936.09;;;15.07;61.67
22333;BME280;11334;36.986;-121.936;2023-05-01T06:57:21;100931.81;;;14.98;62.17
22333;BME280;11334;36.986;-121.936;2023-05-01T06:59:48;100936.91;;;15.08;61.70
22333;BME280;11334;36.986;-121.936;2023-05-01T07:02:14;100941.53;;;15.14;61.77
22333;BME280;11334;36.986;-121.936;2023-05-01T07:04:40;100936.03;;;15.15;62.39
22333;BME280;11334;36.986;-121.936;2023-05-01T07:07:09;100932.06;;;15.11;62.08
22333;BME280;11334;36.986;-121.936;2023-05-01T07:09:35;100934.56;;;15.13;62.31
22333;BME280;11334;36.986;-121.936;2023-05-01T07:12:02;100933.47;;;14.99;62.51
22333;BME280;11334;36.986;-121.936;2023-05-01T07:14:28;100941.38;;;14.93;63.39
22333;BME280;11334;36.986;-121.936;2023-05-01T07:16:54;100938.22;;;14.89;63.51
22333;BME280;11334;36.986;-121.936;2023-05-01T07:19:20;100928.56;;;14.66;64.64
22333;BME280;11334;36.986;-121.936;2023-05-01T07:21:47;100927.44;;;14.61;65.12
22333;BME280;11334;36.986;-121.936;2023-05-01T07:24:13;100927.44;;;14.61;65.88
22333;BME280;11334;36.986;-121.936;2023-05-01T07:26:39;100930.81;;;14.55;66.07
22333;BME280;11334;36.986;-121.936;2023-05-01T07:29:06;100927.91;;;14.42;66.85
22333;BME280;11334;36.986;-121.936;2023-05-01T07:31:32;100926.91;;;14.43;66.67
22333;BME280;11334;36.986;-121.936;2023-05-01T07:33:58;100917.19;;;14.50;66.67
22333;BME280;11334;36.986;-121.936;2023-05-01T07:36:25;100926.34;;;14.55;66.64
22333;BME280;11334;36.986;-121.936;2023-05-01T07:38:51;100916.50;;;14.56;66.15
22333;BME280;11334;36.986;-121.936;2023-05-01T07:41:18;100916.19;;;14.51;67.25
22333;BME280;11334;36.986;-121.936;2023-05-01T07:43:44;100907.38;;;14.51;66.84
22333;BME280;11334;36.986;-121.936;2023-05-01T07:46:10;100905.88;;;14.48;66.96
22333;BME280;11334;36.986;-121.936;2023-05-01T07:48:37;100899.31;;;14.36;67.31
22333;BME280;11334;36.986;-121.936;2023-05-01T07:51:03;100904.94;;;14.41;67.94
22333;BME280;11334;36.986;-121.936;2023-05-01T07:53:30;100900.88;;;14.45;67.90
22333;BME280;11334;36.986;-121.936;2023-05-01T07:56:07;100895.56;;;14.45;67.86
22333;BME280;11334;36.986;-121.936;2023-05-01T07:58:34;100899.91;;;14.46;67.60
22333;BME280;11334;36.986;-121.936;2023-05-01T08:01:05;100892.72;;;14.47;67.77
22333;BME280;11334;36.986;-121.936;2023-05-01T08:03:31;100900.88;;;14.45;67.92
22333;BME280;11334;36.986;-121.936;2023-05-01T08:05:57;100890.59;;;14.42;68.20
22333;BME280;11334;36.986;-121.936;2023-05-01T08:08:23;100888.56;;;14.44;67.83
22333;BME280;11334;36.986;-121.936;2023-05-01T08:10:50;100875.69;;;14.33;68.50
22333;BME280;11334;36.986;-121.936;2023-05-01T08:13:17;100888.22;;;14.47;68.65
22333;BME280;11334;36.986;-121.936;2023-05-01T08:15:46;100884.72;;;14.47;69.26
22333;BME280;11334;36.986;-121.936;2023-05-01T08:18:14;100880.50;;;14.52;69.27
22333;BME280;11334;36.986;-121.936;2023-05-01T08:20:45;100878.66;;;14.52;68.97
22333;BME280;11334;36.986;-121.936;2023-05-01T08:23:13;100871.69;;;14.52;69.35
22333;BME280;11334;36.986;-121.936;2023-05-01T08:25:40;100863.81;;;14.58;69.52
22333;BME280;11334;36.986;-121.936;2023-05-01T08:28:06;100867.09;;;14.60;69.57
22333;BME280;11334;36.986;-121.936;2023-05-01T08:30:33;100876.78;;;14.61;69.41
22333;BME280;11334;36.986;-121.936;2023-05-01T08:32:59;100871.63;;;14.59;69.86
22333;BME280;11334;36.986;-121.936;2023-05-01T08:35:25;100864.19;;;14.69;69.41
22333;BME280;11334;36.986;-121.936;2023-05-01T08:37:51;100863.75;;;14.66;69.49
22333;BME280;11334;36.986;-121.936;2023-05-01T08:40:18;100862.66;;;14.75;69.20
22333;BME280;11334;36.986;-121.936;2023-05-01T08:42:44;100858.22;;;14.67;69.78
22333;BME280;11334;36.986;-121.936;2023-05-01T08:45:10;100859.41;;;14.65;70.01
22333;BME280;11334;36.986;-121.936;2023-05-01T08:47:38;100854.78;;;14.59;70.33
22333;BME280;11334;36.986;-121.936;2023-05-01T08:50:13;100847.25;;;14.62;69.85
22333;BME280;11334;36.986;-121.936;2023-05-01T08:52:43;100851.75;;;14.62;70.06
22333;BME280;11334;36.986;-121.936;2023-05-01T08:55:12;100853.78;;;14.60;69.85
22333;BME280;11334;36.986;-121.936;2023-05-01T08:57:43;100841.25;;;14.46;70.96
22333;BME280;11334;36.986;-121.936;2023-05-01T09:00:16;100847.22;;;14.48;71.71
22333;BME280;11334;36.986;-121.936;2023-05-01T09:02:46;100843.19;;;14.52;70.96
22333;BME280;11334;36.986;-121.936;2023-05-01T09:05:15;100829.09;;;14.44;70.92
22333;BME280;11334;36.986;-121.936;2023-05-01T09:07:42;100830.06;;;14.51;71.21
22333;BME280;11334;36.986;-121.936;2023-05-01T09:10:11;100836.88;;;14.53;71.26
22333;BME280;11334;36.986;-121.936;2023-05-01T09:12:39;100820.50;;;14.56;71.32
22333;BME280;11334;36.986;-121.936;2023-05-01T09:15:07;100819.75;;;14.62;70.99
22333;BME280;11334;36.986;-121.936;2023-05-01T09:17:35;100815.25;;;14.62;70.67
22333;BME280;11334;36.986;-121.936;2023-05-01T09:20:03;100819.31;;;14.58;70.26
22333;BME280;11334;36.986;-121.936;2023-05-01T09:22:33;100812.88;;;14.53;70.78
22333;BME280;11334;36.986;-121.936;2023-05-01T09:25:00;100806.59;;;14.46;70.74
22333;BME280;11334;36.986;-121.936;2023-05-01T09:27:35;100817.31;;;14.38;71.07
22333;BME280;11334;36.986;-121.936;2023-05-01T09:30:03;100805.09;;;14.44;71.67
22333;BME280;11334;36.986;-121.936;2023-05-01T09:32:31;100803.78;;;14.40;71.74
22333;BME280;11334;36.986;-121.936;2023-05-01T09:35:14;100795.63;;;14.41;71.68
22333;BME280;11334;36.986;-121.936;2023-05-01T09:37:42;100797.00;;;14.37;71.70
22333;BME280;11334;36.986;-121.936;2023-05-01T09:40:14;100801.03;;;14.33;72.37
22333;BME280;11334;36.986;-121.936;2023-05-01T09:42:49;100797.72;;;14.31;72.54
22333;BME280;11334;36.986;-121.936;2023-05-01T09:45:18;100790.91;;;14.29;72.59
22333;BME280;11334;36.986;-121.936;2023-05-01T09:47:46;100798.38;;;14.33;72.84
22333;BME280;11334;36.986;-121.936;2023-05-01T09:50:30;100790.41;;;14.25;72.32
22333;BME280;11334;36.986;-121.936;2023-05-01T09:53:00;100793.75;;;14.27;72.88
22333;BME280;11334;36.986;-121.936;2023-05-01T09:55:26;100787.22;;;14.30;72.64
22333;BME280;11334;36.986;-121.936;2023-05-01T09:57:53;100789.00;;;14.37;72.89
22333;BME280;11334;36.986;-121.936;2023-05-01T10:00:19;100788.53;;;14.34;73.20
22333;BME280;11334;36.986;-121.936;2023-05-01T10:02:49;100777.75;;;14.27;73.42
22333;BME280;11334;36.986;-121.936;2023-05-01T10:05:18;100781.53;;;14.33;73.25
22333;BME280;11334;36.986;-121.936;2023-05-01T10:08:01;100791.06;;;14.27;73.18
22333;BME280;11334;36.986;-121.936;2023-05-01T10:10:30;100786.41;;;14.29;73.79
22333;BME280;11334;36.986;-121.936;2023-05-01T10:13:15;100782.25;;;14.27;74.25
22333;BME280;11334;36.986;-121.936;2023-05-01T10:15:41;100784.56;;;14.30;74.27
22333;BME280;11334;36.986;-121.936;2023-05-01T10:18:09;100775.75;;;14.29;74.35
22333;BME280;11334;36.986;-121.936;2023-05-01T10:20:36;100776.56;;;14.30;74.76
22333;BME280;11334;36.986;-121.936;2023-05-01T10:23:02;100779.50;;;14.35;74.56
22333;BME280;11334;36.986;-121.936;2023-05-01T10:25:31;100773.53;;;14.33;74.33
22333;BME280;11334;36.986;-121.936;2023-05-01T10:28:02;100780.47;;;14.42;73.39
22333;BME280;11334;36.986;-121.936;2023-05-01T10:30:29;100778.53;;;14.36;73.63
22333;BME280;11334;36.986;-121.936;2023-05-01T10:32:57;100772.06;;;14.30;74.19
22333;BME280;11334;36.986;-121.936;2023-05-01T10:35:28;100768.41;;;14.31;74.24
22333;BME280;11334;36.986;-121.936;2023-05-01T10:38:00;100772.72;;;14.32;74.52
22333;BME280;11334;36.986;-121.936;2023-05-01T10:53:42;100773.53;;;14.11;76.66
22333;BME280;11334;36.986;-121.936;2023-05-01T10:58:53;100769.38;;;14.16;76.30
22333;BME280;11334;36.986;-121.936;2023-05-01T11:01:30;100775.69;;;14.15;76.03
22333;BME280;11334;36.986;-121.936;2023-05-01T11:03:59;100767.69;;;14.15;76.00
22333;BME280;11334;36.986;-121.936;2023-05-01T11:06:25;100770.56;;;14.14;77.00
22333;BME280;11334;36.986;-121.936;2023-05-01T11:08:53;100771.47;;;14.21;75.52
22333;BME280;11334;36.986;-121.936;2023-05-01T11:14:04;100772.38;;;14.13;75.57
22333;BME280;11334;36.986;-121.936;2023-05-01T11:21:38;100767.91;;;14.06;75.85
22333;BME280;11334;36.986;-121.936;2023-05-01T11:24:06;100761.97;;;14.04;76.65
22333;BME280;11334;36.986;-121.936;2023-05-01T11:26:37;100766.56;;;14.10;76.32
22333;BME280;11334;36.986;-121.936;2023-05-01T11:29:05;100775.88;;;14.14;76.61
22333;BME280;11334;36.986;-121.936;2023-05-01T11:31:32;100771.19;;;14.16;76.60
22333;BME280;11334;36.986;-121.936;2023-05-01T11:33:59;100767.88;;;14.14;76.92
22333;BME280;11334;36.986;-121.936;2023-05-01T11:36:26;100768.19;;;14.19;77.00
22333;BME280;11334;36.986;-121.936;2023-05-01T11:38:57;100770.66;;;14.20;76.50
22333;BME280;11334;36.986;-121.936;2023-05-01T11:41:27;100749.03;;;14.15;76.43
22333;BME280;11334;36.986;-121.936;2023-05-01T11:43:57;100762.66;;;14.20;75.72
22333;BME280;11334;36.986;-121.936;2023-05-01T11:46:25;100769.81;;;14.20;76.70
22333;BME280;11334;36.986;-121.936;2023-05-01T11:48:56;100760.47;;;14.23;76.84
22333;BME280;11334;36.986;-121.936;2023-05-01T11:51:23;100763.72;;;14.33;76.24
22333;BME280;11334;36.986;-121.936;2023-05-01T11:56:25;100775.38;;;14.32;75.95
22333;BME280;11334;36.986;-121.936;2023-05-01T11:58:53;100767.09;;;14.27;76.36
22333;BME280;11334;36.986;-121.936;2023-05-01T12:01:20;100754.94;;;14.25;76.14
22333;BME280;11334;36.986;-121.936;2023-05-01T12:03:46;100759.75;;;14.29;76.49
22333;BME280;11334;36.986;-121.936;2023-05-01T12:06:13;100758.09;;;14.28;76.30
22333;BME280;11334;36.986;-121.936;2023-05-01T12:08:46;100758.63;;;14.24;76.93
22333;BME280;11334;36.986;-121.936;2023-05-01T12:11:15;100747.16;;;14.23;77.23
22333;BME280;11334;36.986;-121.936;2023-05-01T12:13:41;100748.03;;;14.16;77.04
22333;BME280;11334;36.986;-121.936;2023-05-01T12:16:08;100760.75;;;14.28;76.78
22333;BME280;11334;36.986;-121.936;2023-05-01T12:18:36;100756.72;;;14.32;76.45
22333;BME280;11334;36.986;-121.936;2023-05-01T12:21:02;100751.38;;;14.32;77.04
22333;BME280;11334;36.986;-121.936;2023-05-01T12:23:35;100748.91;;;14.31;77.30
22333;BME280;11334;36.986;-121.936;2023-05-01T12:26:21;100755.06;;;14.31;76.81
22333;BME280;11334;36.986;-121.936;2023-05-01T12:29:02;100749.75;;;14.31;77.20
22333;BME280;11334;36.986;-121.936;2023-05-01T12:31:30;100748.72;;;14.32;76.63
22333;BME280;11334;36.986;-121.936;2023-05-01T12:34:01;100750.72;;;14.30;77.15
22333;BME280;11334;36.986;-121.936;2023-05-01T12:36:30;100756.84;;;14.39;76.69
22333;BME280;11334;36.986;-121.936;2023-05-01T12:39:07;100747.53;;;14.35;76.54
22333;BME280;11334;36.986;-121.936;2023-05-01T12:41:46;100745.53;;;14.37;76.01
22333;BME280;11334;36.986;-121.936;2023-05-01T12:46:51;100741.75;;;14.31;76.43
22333;BME280;11334;36.986;-121.936;2023-05-01T12:49:18;100741.09;;;14.29;76.98
22333;BME280;11334;36.986;-121.936;2023-05-01T12:51:49;100750.09;;;14.28;76.96
22333;BME280;11334;36.986;-121.936;2023-05-01T12:56:52;100738.78;;;14.26;76.06
22333;BME280;11334;36.986;-121.936;2023-05-01T12:59:26;100743.28;;;14.26;77.12
22333;BME280;11334;36.986;-121.936;2023-05-01T13:02:21;100742.16;;;14.21;77.61
22333;BME280;11334;36.986;-121.936;2023-05-01T13:05:07;100729.72;;;14.13;77.26
22333;BME280;11334;36.986;-121.936;2023-05-01T13:07:35;100741.88;;;14.16;77.82
22333;BME280;11334;36.986;-121.936;2023-05-01T13:10:02;100743.53;;;14.17;77.32
22333;BME280;11334;36.986;-121.936;2023-05-01T13:12:31;100741.53;;;14.19;77.24